Time;durP1;ratioP1;P1;durP2;ratioP2;P2;SDS_P1;SDS_P2;PMS_P1;PMS_P2;Temp;Humidity;BMP_temperature;BMP_pressure;BME280_temperature;BME280_humidity;BME280_pressure;Samples;Min_cycle;Max_cycle;Signal;HPM_P1;HPM_P2
2022/07/12 00:02:15;;;;;;;5.80;2.80;;;22.60;66.00;;;;;;5054379;28;20017;-16
2022/07/12 00:04:41;;;;;;;5.50;3.30;;;22.60;66.50;;;;;;5054382;28;20032;-17
2022/07/12 00:07:07;;;;;;;3.60;2.95;;;22.50;67.30;;;;;;5054423;28;20037;-17
2022/07/12 00:09:34;;;;;;;7.32;3.55;;;22.50;66.90;;;;;;5054391;28;20107;-18
2022/07/12 00:11:59;;;;;;;5.65;3.45;;;22.50;67.80;;;;;;5054968;28;20086;-17
2022/07/12 00:14:25;;;;;;;5.70;3.15;;;22.40;67.50;;;;;;5054143;28;20415;-17
2022/07/12 00:16:51;;;;;;;5.05;3.20;;;22.40;67.50;;;;;;5053523;28;20546;-17
2022/07/12 00:19:18;;;;;;;5.32;3.20;;;22.40;67.70;;;;;;5054807;28;20039;-17
2022/07/12 00:21:44;;;;;;;8.10;3.20;;;22.40;67.50;;;;;;5054470;28;20033;-17
2022/07/12 00:24:10;;;;;;;6.25;3.20;;;22.40;68.20;;;;;;5054159;28;20029;-17
2022/07/12 00:26:36;;;;;;;5.88;2.92;;;22.40;68.20;;;;;;5053826;28;20021;-16
2022/07/12 00:29:02;;;;;;;4.75;3.22;;;22.40;68.10;;;;;;5054383;28;20040;-19
2022/07/12 00:31:28;;;;;;;3.78;2.80;;;22.40;68.10;;;;;;5052740;28;20052;-17
2022/07/12 00:33:54;;;;;;;5.15;3.35;;;22.40;67.30;;;;;;5054008;28;20060;-19
2022/07/12 00:36:21;;;;;;;5.50;3.20;;;22.40;68.60;;;;;;5054409;28;20100;-17
2022/07/12 00:38:47;;;;;;;3.70;3.03;;;22.40;68.10;;;;;;5053819;28;20021;-17
2022/07/12 00:41:13;;;;;;;4.75;3.10;;;22.40;68.00;;;;;;5053840;28;20025;-19
2022/07/12 00:43:39;;;;;;;4.93;3.33;;;22.40;67.60;;;;;;5053825;28;20021;-18
2022/07/12 00:46:04;;;;;;;4.03;3.08;;;22.40;67.60;;;;;;5053676;28;20027;-17
2022/07/12 00:48:34;;;;;;;5.30;3.42;;;22.40;67.40;;;;;;5053318;28;20171;-17
2022/07/12 00:51:03;;;;;;;4.45;2.95;;;22.40;67.30;;;;;;5053608;28;20021;-18
2022/07/12 00:53:29;;;;;;;4.10;2.47;;;22.40;67.00;;;;;;5052403;28;20033;-17
2022/07/12 00:55:58;;;;;;;3.25;2.38;;;22.40;66.80;;;;;;5052341;28;20025;-18
2022/07/12 00:58:26;;;;;;;4.82;2.88;;;22.40;66.60;;;;;;5053652;28;20025;-16
2022/07/12 01:00:54;;;;;;;3.92;2.75;;;22.40;66.50;;;;;;5053463;28;20370;-17
2022/07/12 01:03:20;;;;;;;4.15;2.90;;;22.40;66.50;;;;;;5053362;28;20494;-17
2022/07/12 01:05:47;;;;;;;3.60;2.42;;;22.40;66.50;;;;;;5053580;28;20033;-17
2022/07/12 01:08:15;;;;;;;4.03;2.60;;;22.40;66.50;;;;;;5051870;28;20056;-20
2022/07/12 01:10:42;;;;;;;3.13;2.70;;;22.40;66.60;;;;;;5053652;28;20086;-17
2022/07/12 01:13:09;;;;;;;4.82;3.25;;;22.40;66.40;;;;;;5053859;28;20463;-17
2022/07/12 01:15:35;;;;;;;5.07;3.72;;;22.40;66.60;;;;;;5053739;28;20037;-16
2022/07/12 01:18:03;;;;;;;4.60;3.22;;;22.40;66.60;;;;;;5051883;28;20029;-16
2022/07/12 01:20:30;;;;;;;3.95;2.80;;;22.40;66.80;;;;;;5053023;28;20406;-17
2022/07/12 01:22:58;;;;;;;3.40;2.85;;;22.30;66.80;;;;;;5053438;28;20021;-17
2022/07/12 01:25:25;;;;;;;5.55;3.28;;;22.20;66.90;;;;;;5053436;28;20028;-17
2022/07/12 01:27:51;;;;;;;3.10;2.80;;;22.20;67.20;;;;;;5052104;28;20033;-17
2022/07/12 01:30:17;;;;;;;3.00;2.70;;;22.10;67.10;;;;;;5052777;28;20102;-16
2022/07/12 01:32:43;;;;;;;4.18;2.70;;;22.10;67.20;;;;;;5051737;28;20025;-18
2022/07/12 01:35:10;;;;;;;4.55;2.72;;;22.00;67.40;;;;;;5051826;28;20028;-18
2022/07/12 01:37:38;;;;;;;4.50;3.00;;;22.00;67.70;;;;;;5053282;28;20468;-17
2022/07/12 01:40:10;;;;;;;4.00;3.00;;;22.00;67.60;;;;;;5053173;28;20128;-17
2022/07/12 01:42:36;;;;;;;3.33;2.90;;;22.00;67.80;;;;;;5051548;28;20029;-17
2022/07/12 01:45:03;;;;;;;6.35;2.95;;;22.00;67.90;;;;;;5053231;28;20048;-17
2022/07/12 01:47:31;;;;;;;5.28;3.10;;;21.90;68.10;;;;;;5053790;28;20164;-18
2022/07/12 01:49:58;;;;;;;6.20;3.60;;;21.90;68.10;;;;;;5052877;28;20033;-17
2022/07/12 01:52:24;;;;;;;5.63;3.50;;;21.90;68.00;;;;;;5052900;28;20485;-17
2022/07/12 01:54:50;;;;;;;6.22;3.60;;;21.90;68.70;;;;;;5053100;28;20503;-18
2022/07/12 01:57:17;;;;;;;7.28;4.00;;;21.90;69.20;;;;;;5052808;28;20406;-17
2022/07/12 01:59:43;;;;;;;4.72;3.55;;;21.90;69.10;;;;;;5052835;28;20100;-17
2022/07/12 02:02:09;;;;;;;3.78;3.08;;;21.90;69.00;;;;;;5052695;28;20041;-17
2022/07/12 02:04:36;;;;;;;5.30;3.17;;;21.80;69.00;;;;;;5052557;28;20032;-17
2022/07/12 02:07:04;;;;;;;4.90;3.60;;;21.70;68.90;;;;;;5052620;28;20033;-17
2022/07/12 02:09:31;;;;;;;4.28;3.20;;;21.70;69.30;;;;;;5052848;28;20095;-17
2022/07/12 02:11:57;;;;;;;4.43;3.25;;;21.50;69.10;;;;;;5051823;28;20116;-17
2022/07/12 02:14:24;;;;;;;4.43;3.78;;;21.50;69.20;;;;;;5052518;28;20358;-18
2022/07/12 02:16:50;;;;;;;8.63;3.85;;;21.40;69.30;;;;;;5052959;28;20393;-17
2022/07/12 02:19:16;;;;;;;4.60;3.38;;;21.40;69.70;;;;;;5053024;28;20032;-17
2022/07/12 02:21:42;;;;;;;5.78;4.07;;;21.30;70.10;;;;;;5052581;28;20427;-17
2022/07/12 02:24:08;;;;;;;4.10;3.70;;;21.20;70.50;;;;;;5052969;28;20017;-18
2022/07/12 02:26:37;;;;;;;5.63;3.80;;;21.20;70.70;;;;;;5052181;28;20090;-18
2022/07/12 02:29:05;;;;;;;5.32;4.03;;;21.10;70.70;;;;;;5053083;28;20040;-17
2022/07/12 02:31:31;;;;;;;4.43;3.70;;;21.00;71.10;;;;;;5052600;28;20025;-17
2022/07/12 02:33:58;;;;;;;5.72;4.10;;;20.90;71.00;;;;;;5052365;28;20025;-16
2022/07/12 02:36:24;;;;;;;5.70;4.75;;;20.90;71.00;;;;;;5052275;28;20025;-15
2022/07/12 02:38:50;;;;;;;6.65;3.90;;;20.80;72.70;;;;;;5053878;28;20049;-15
2022/07/12 02:41:16;;;;;;;8.65;5.10;;;20.80;71.60;;;;;;5056468;28;20080;-17
2022/07/12 02:43:42;;;;;;;6.55;4.60;;;20.80;72.00;;;;;;5054836;28;20425;-16
2022/07/12 02:46:10;;;;;;;6.13;4.78;;;20.70;72.20;;;;;;5056056;28;20021;-17
2022/07/12 02:48:37;;;;;;;5.45;4.07;;;20.70;72.30;;;;;;5054366;28;20514;-17
2022/07/12 02:51:05;;;;;;;4.88;3.90;;;20.70;71.80;;;;;;5056243;28;20036;-17
2022/07/12 02:53:32;;;;;;;7.90;4.95;;;20.70;72.10;;;;;;5055867;28;20037;-15
2022/07/12 02:55:59;;;;;;;7.40;4.85;;;20.80;72.50;;;;;;5056160;28;20036;-17
2022/07/12 02:58:25;;;;;;;7.55;5.50;;;20.80;73.00;;;;;;5055685;28;20025;-17
2022/07/12 03:00:51;;;;;;;6.65;4.90;;;20.80;73.40;;;;;;5056374;28;20032;-18
2022/07/12 03:03:17;;;;;;;7.43;5.47;;;20.80;73.40;;;;;;5055810;28;20039;-17
2022/07/12 03:05:43;;;;;;;7.20;5.05;;;20.80;73.50;;;;;;5056037;28;20112;-17
2022/07/12 03:08:10;;;;;;;6.40;5.10;;;20.80;73.10;;;;;;5055552;28;20396;-18
2022/07/12 03:10:37;;;;;;;4.82;3.90;;;20.80;72.80;;;;;;5055450;28;20025;-18
2022/07/12 03:13:04;;;;;;;5.43;4.63;;;20.90;72.40;;;;;;5055945;28;20542;-16
2022/07/12 03:15:31;;;;;;;6.35;4.22;;;20.90;72.10;;;;;;5055543;28;20029;-17
2022/07/12 03:17:58;;;;;;;7.55;4.75;;;20.90;72.80;;;;;;5055364;28;20109;-19
2022/07/12 03:20:24;;;;;;;8.25;4.45;;;20.90;72.50;;;;;;5055210;28;20036;-17
2022/07/12 03:22:53;;;;;;;5.63;4.10;;;21.00;72.50;;;;;;5055333;28;20033;-17
2022/07/12 03:25:20;;;;;;;7.32;4.68;;;21.00;72.40;;;;;;5055617;28;20029;-17
2022/07/12 03:27:46;;;;;;;8.32;4.63;;;21.00;72.40;;;;;;5055434;28;20033;-17
2022/07/12 03:30:13;;;;;;;6.47;4.35;;;21.10;72.80;;;;;;5055260;28;20451;-17
2022/07/12 03:32:39;;;;;;;5.57;4.28;;;21.00;72.50;;;;;;5055380;28;20033;-17
2022/07/12 03:35:06;;;;;;;6.88;4.30;;;21.10;72.70;;;;;;5055423;28;20036;-19
2022/07/12 03:37:49;;;;;;;7.38;6.15;;;21.10;72.90;;;;;;5055010;28;20115;-18
2022/07/12 03:40:17;;;;;;;7.13;4.77;;;21.10;74.10;;;;;;5054938;28;20037;-17
2022/07/12 03:42:43;;;;;;;5.32;4.38;;;21.10;73.30;;;;;;5055263;28;20075;-18
2022/07/12 03:45:10;;;;;;;7.05;4.35;;;21.10;73.00;;;;;;5054893;28;20547;-18
2022/07/12 03:47:37;;;;;;;8.30;5.00;;;21.20;73.50;;;;;;5053815;28;20033;-17
2022/07/12 03:50:05;;;;;;;6.97;5.28;;;21.20;73.10;;;;;;5053136;28;20025;-18
2022/07/12 03:52:32;;;;;;;6.78;5.13;;;21.20;73.60;;;;;;5053248;28;20025;-17
2022/07/12 03:54:59;;;;;;;11.25;7.57;;;21.20;73.90;;;;;;5055166;28;20495;-17
2022/07/12 03:57:26;;;;;;;8.50;6.07;;;21.20;74.10;;;;;;5054637;28;20032;-19
2022/07/12 03:59:53;;;;;;;8.60;5.72;;;21.20;73.30;;;;;;5054880;28;20025;-17
2022/07/12 04:02:19;;;;;;;7.53;5.22;;;21.20;74.10;;;;;;5054535;28;20385;-19
2022/07/12 04:04:47;;;;;;;7.20;5.05;;;21.30;74.40;;;;;;5055194;28;20064;-18
2022/07/12 04:07:14;;;;;;;10.02;6.47;;;21.30;74.00;;;;;;5055564;28;20033;-17
2022/07/12 04:09:40;;;;;;;10.30;6.57;;;21.30;74.30;;;;;;5053203;28;20021;-17
2022/07/12 04:12:06;;;;;;;8.25;5.22;;;21.40;74.20;;;;;;5054739;28;20048;-18
2022/07/12 04:14:33;;;;;;;10.38;6.43;;;21.40;73.90;;;;;;5054083;28;20025;-18
2022/07/12 04:16:58;;;;;;;11.38;7.43;;;21.40;73.80;;;;;;5054215;28;20025;-18
2022/07/12 04:19:27;;;;;;;8.60;5.88;;;21.50;74.10;;;;;;5054555;28;20021;-18
2022/07/12 04:21:55;;;;;;;9.30;5.82;;;21.50;74.20;;;;;;5054777;28;20017;-18
2022/07/12 04:24:22;;;;;;;7.75;5.00;;;21.50;74.00;;;;;;5054253;28;20043;-18
2022/07/12 04:26:49;;;;;;;9.02;5.80;;;21.50;73.90;;;;;;5054298;28;20048;-17
2022/07/12 04:29:16;;;;;;;7.35;5.35;;;21.60;74.30;;;;;;5054082;28;20064;-18
2022/07/12 04:31:42;;;;;;;10.52;5.40;;;21.60;74.00;;;;;;5054026;28;20095;-18
2022/07/12 04:34:08;;;;;;;9.93;5.30;;;21.60;74.10;;;;;;5052657;28;20025;-18
2022/07/12 04:36:34;;;;;;;10.95;5.53;;;21.70;73.70;;;;;;5054095;28;20396;-18
2022/07/12 04:39:00;;;;;;;9.77;4.80;;;21.70;74.00;;;;;;5054226;28;20029;-18
2022/07/12 04:41:26;;;;;;;6.97;4.50;;;21.70;73.40;;;;;;5053852;28;20366;-17
2022/07/12 04:43:52;;;;;;;8.63;5.18;;;21.70;73.30;;;;;;5054108;28;20021;-16
2022/07/12 04:46:18;;;;;;;8.07;5.32;;;21.80;73.10;;;;;;5053564;28;20048;-17
2022/07/12 04:48:44;;;;;;;6.78;4.65;;;21.90;72.60;;;;;;5054062;28;20041;-17
2022/07/12 04:51:09;;;;;;;7.65;4.90;;;21.80;72.60;;;;;;5054026;28;20044;-17
2022/07/12 04:53:35;;;;;;;6.90;4.78;;;21.90;72.30;;;;;;5052744;28;20028;-18
2022/07/12 04:56:01;;;;;;;7.60;4.47;;;21.90;71.90;;;;;;5052412;28;20024;-17
2022/07/12 04:58:28;;;;;;;8.02;4.55;;;21.90;71.80;;;;;;5053363;28;20022;-17
2022/07/12 05:00:53;;;;;;;6.13;4.55;;;22.00;71.00;;;;;;5053517;28;20031;-15
2022/07/12 05:03:19;;;;;;;8.65;4.43;;;22.00;70.60;;;;;;5053164;28;20025;-17
2022/07/12 05:05:45;;;;;;;9.73;4.47;;;22.10;70.10;;;;;;5053591;28;20029;-17
2022/07/12 05:08:11;;;;;;;7.35;4.32;;;22.20;69.90;;;;;;5053621;28;20037;-16
2022/07/12 05:10:37;;;;;;;9.27;4.60;;;22.20;68.70;;;;;;5053398;28;20392;-17
2022/07/12 05:13:02;;;;;;;5.40;4.25;;;22.30;68.50;;;;;;5053313;28;20021;-17
2022/07/12 05:15:28;;;;;;;5.07;3.60;;;22.30;67.40;;;;;;5053281;28;20024;-18
2022/07/12 05:17:54;;;;;;;6.95;4.25;;;22.40;67.40;;;;;;5053164;28;20106;-18
2022/07/12 05:20:20;;;;;;;6.97;3.97;;;22.40;65.50;;;;;;5053082;28;20021;-19
2022/07/12 05:22:46;;;;;;;7.88;4.30;;;22.50;65.90;;;;;;5053831;28;20051;-17
2022/07/12 05:25:11;;;;;;;9.07;4.00;;;22.50;65.40;;;;;;5053388;28;20020;-16
2022/07/12 05:27:37;;;;;;;6.20;3.72;;;22.70;65.60;;;;;;5053053;28;20032;-18
2022/07/12 05:30:04;;;;;;;7.85;4.38;;;22.70;65.40;;;;;;5053037;28;20061;-17
2022/07/12 05:32:30;;;;;;;9.45;4.05;;;22.80;64.00;;;;;;5053043;28;20052;-17
2022/07/12 05:34:56;;;;;;;6.47;3.83;;;22.90;64.30;;;;;;5053255;28;20473;-16
2022/07/12 05:37:24;;;;;;;6.32;4.18;;;22.90;64.00;;;;;;5053008;28;20028;-17
2022/07/12 05:39:54;;;;;;;8.75;4.03;;;23.00;63.60;;;;;;5052928;28;20021;-17
2022/07/12 05:42:20;;;;;;;9.05;4.05;;;23.10;63.40;;;;;;5053696;28;20052;-17
2022/07/12 05:44:46;;;;;;;5.65;3.95;;;23.10;63.10;;;;;;5053792;28;20072;-15
2022/07/12 05:47:12;;;;;;;6.55;3.97;;;23.20;62.80;;;;;;5052992;28;20065;-16
2022/07/12 05:49:38;;;;;;;8.27;4.10;;;23.20;63.10;;;;;;5052881;28;20040;-17
2022/07/12 05:54:50;;;;;;;6.15;4.07;;;23.40;63.30;;;;;;5053487;28;20503;-17
2022/07/12 05:57:16;;;;;;;8.40;3.90;;;23.40;63.30;;;;;;5053082;28;20111;-17
2022/07/12 05:59:42;;;;;;;7.15;3.63;;;23.50;63.00;;;;;;5051531;28;20048;-16
2022/07/12 06:02:09;;;;;;;8.68;4.10;;;23.60;62.80;;;;;;5052662;28;20396;-17
2022/07/12 06:04:36;;;;;;;6.28;4.13;;;23.70;62.70;;;;;;5052798;28;20111;-17
2022/07/12 06:07:03;;;;;;;8.05;3.97;;;23.70;62.60;;;;;;5052690;28;20059;-17
2022/07/12 06:09:29;;;;;;;5.28;3.40;;;23.70;62.80;;;;;;5052641;28;20495;-17
2022/07/12 06:11:55;;;;;;;6.88;4.00;;;23.80;63.00;;;;;;5052827;28;20033;-17
2022/07/12 06:14:21;;;;;;;7.05;4.35;;;23.90;63.10;;;;;;5054406;28;20021;-17
2022/07/12 06:16:46;;;;;;;5.63;3.53;;;24.00;62.60;;;;;;5056633;28;20021;-17
2022/07/12 06:19:12;;;;;;;6.00;3.88;;;24.10;62.30;;;;;;5056560;28;20029;-18
2022/07/12 06:21:38;;;;;;;6.35;3.80;;;24.20;61.60;;;;;;5055237;28;20025;-17
2022/07/12 06:24:05;;;;;;;7.18;4.22;;;24.40;61.10;;;;;;5056435;28;20093;-17
2022/07/12 06:26:31;;;;;;;6.38;3.72;;;24.50;59.60;;;;;;5054911;28;20105;-18
2022/07/12 06:28:57;;;;;;;4.85;3.75;;;24.50;60.00;;;;;;5056382;28;20170;-17
2022/07/12 06:31:25;;;;;;;7.55;3.90;;;24.70;59.50;;;;;;5056271;28;20033;-17
2022/07/12 06:33:52;;;;;;;5.80;3.60;;;24.80;59.00;;;;;;5056155;28;20059;-17
2022/07/12 06:36:18;;;;;;;8.10;4.07;;;24.90;58.80;;;;;;5054774;28;20029;-17
2022/07/12 06:38:44;;;;;;;5.57;3.80;;;25.10;58.10;;;;;;5056809;28;20029;-17
2022/07/12 06:41:09;;;;;;;5.55;3.70;;;25.10;57.80;;;;;;5056463;28;20052;-16
2022/07/12 06:43:35;;;;;;;7.35;3.67;;;25.30;57.30;;;;;;5056371;28;20031;-17
2022/07/12 06:46:01;;;;;;;4.75;3.28;;;25.40;56.80;;;;;;5056136;28;20032;-17
2022/07/12 06:48:27;;;;;;;6.97;3.40;;;25.60;56.80;;;;;;5055952;28;20094;-17
2022/07/12 06:50:53;;;;;;;7.38;3.28;;;25.70;56.00;;;;;;5056432;28;20563;-16
2022/07/12 06:53:20;;;;;;;4.65;3.22;;;25.90;55.50;;;;;;5055934;28;20108;-17
2022/07/12 06:55:46;;;;;;;5.15;3.05;;;26.10;54.10;;;;;;5056213;28;20043;-16
2022/07/12 06:58:12;;;;;;;5.22;2.90;;;26.10;55.00;;;;;;5054613;28;20056;-16
2022/07/12 07:00:38;;;;;;;6.25;3.40;;;26.20;54.50;;;;;;5055710;28;20025;-16
2022/07/12 07:03:07;;;;;;;5.03;3.25;;;26.30;54.00;;;;;;5056520;28;20021;-17
2022/07/12 07:05:32;;;;;;;6.05;3.00;;;26.30;54.20;;;;;;5055719;28;20065;-17
2022/07/12 07:07:58;;;;;;;8.70;3.10;;;26.40;54.40;;;;;;5055548;28;20037;-16
2022/07/12 07:10:24;;;;;;;3.78;2.80;;;26.40;54.60;;;;;;5055342;28;20032;-16
2022/07/12 07:12:50;;;;;;;3.53;2.50;;;26.50;54.20;;;;;;5055546;28;20029;-16
2022/07/12 07:15:16;;;;;;;4.50;2.92;;;26.70;53.80;;;;;;5055937;28;20025;-17
2022/07/12 07:17:42;;;;;;;4.88;2.80;;;26.80;52.80;;;;;;5055369;28;20524;-16
2022/07/12 07:20:12;;;;;;;5.47;2.75;;;26.90;52.20;;;;;;5056252;28;20025;-17
2022/07/12 07:22:38;;;;;;;5.93;3.00;;;27.00;51.70;;;;;;5055680;28;20029;-17
2022/07/12 07:25:06;;;;;;;5.32;2.70;;;27.00;51.70;;;;;;5055872;28;20377;-17
2022/07/12 07:27:32;;;;;;;5.55;2.72;;;27.00;51.60;;;;;;5055435;28;20044;-16
2022/07/12 07:32:44;;;;;;;4.07;2.88;;;27.10;51.20;;;;;;5055379;28;20447;-16
2022/07/12 07:35:10;;;;;;;6.20;3.10;;;27.10;51.40;;;;;;5056226;28;20082;-18
2022/07/12 07:37:37;;;;;;;6.57;3.00;;;27.10;51.60;;;;;;5055011;28;20033;-17
2022/07/12 07:40:03;;;;;;;5.93;3.00;;;27.30;51.30;;;;;;5055029;28;20040;-18
2022/07/12 07:42:29;;;;;;;5.63;2.67;;;27.30;50.70;;;;;;5055053;28;20068;-17
2022/07/12 07:44:55;;;;;;;7.05;2.80;;;27.40;50.70;;;;;;5054960;28;20056;-16
2022/07/12 07:47:21;;;;;;;4.35;2.95;;;27.60;50.60;;;;;;5053957;28;20066;-17
2022/07/12 07:49:47;;;;;;;3.55;2.60;;;27.70;50.00;;;;;;5054823;28;20029;-17
2022/07/12 07:52:13;;;;;;;6.25;2.80;;;27.80;50.00;;;;;;5054888;28;20021;-18
2022/07/12 07:54:39;;;;;;;3.70;2.47;;;27.80;49.50;;;;;;5055607;28;20017;-16
2022/07/12 07:57:05;;;;;;;7.38;3.10;;;27.90;49.70;;;;;;5054713;28;20116;-17
2022/07/12 07:59:31;;;;;;;6.45;3.03;;;27.90;49.30;;;;;;5054937;28;20373;-16
2022/07/12 08:01:57;;;;;;;7.70;2.95;;;27.90;49.40;;;;;;5054932;28;20032;-17
2022/07/12 08:04:22;;;;;;;7.55;3.00;;;28.00;49.40;;;;;;5054638;28;20385;-16
2022/07/12 08:06:50;;;;;;;12.00;3.72;;;28.10;49.20;;;;;;5054796;28;20491;-16
2022/07/12 08:09:16;;;;;;;14.23;3.70;;;28.20;49.40;;;;;;5054448;28;20040;-16
2022/07/12 08:11:43;;;;;;;7.22;3.22;;;28.40;48.80;;;;;;5054619;28;20017;-17
2022/07/12 08:14:10;;;;;;;7.40;3.13;;;28.40;48.80;;;;;;5054715;28;20035;-17
2022/07/12 08:16:37;;;;;;;3.35;2.80;;;28.50;48.10;;;;;;5054399;28;20032;-16
2022/07/12 08:19:04;;;;;;;4.93;2.85;;;28.40;47.80;;;;;;5054188;28;20025;-16
2022/07/12 08:21:30;;;;;;;3.58;2.90;;;28.30;48.40;;;;;;5054558;28;20029;-18
2022/07/12 08:23:57;;;;;;;5.07;2.85;;;28.20;48.50;;;;;;5054507;28;20040;-17
2022/07/12 08:26:23;;;;;;;4.55;2.80;;;28.30;48.60;;;;;;5054608;28;20380;-16
2022/07/12 08:28:49;;;;;;;2.75;2.30;;;28.30;48.30;;;;;;5054343;28;20040;-16
2022/07/12 08:31:15;;;;;;;3.13;2.53;;;28.40;48.30;;;;;;5053889;28;20041;-16
2022/07/12 08:33:41;;;;;;;6.65;2.67;;;28.70;47.60;;;;;;5054196;28;20021;-16
2022/07/12 08:36:08;;;;;;;3.90;2.65;;;29.10;46.70;;;;;;5053607;28;20489;-15
2022/07/12 08:38:36;;;;;;;6.10;2.50;;;29.50;46.30;;;;;;5053730;28;20013;-18
2022/07/12 08:41:04;;;;;;;5.07;2.42;;;29.90;46.00;;;;;;5054718;28;20453;-17
2022/07/12 08:43:35;;;;;;;2.10;2.00;;;30.20;45.20;;;;;;5053841;28;20369;-17
2022/07/12 08:46:12;;;;;;;3.95;2.20;;;30.40;45.10;;;;;;5053869;28;20056;-17
2022/07/12 08:48:39;;;;;;;4.60;2.80;;;30.70;43.30;;;;;;5053437;28;20116;-16
2022/07/12 08:51:10;;;;;;;3.95;2.30;;;30.70;42.60;;;;;;5053771;28;20074;-17
2022/07/12 08:53:37;;;;;;;3.47;2.40;;;30.80;43.50;;;;;;5053736;28;20036;-16
2022/07/12 08:56:04;;;;;;;5.63;2.60;;;31.00;43.70;;;;;;5054481;28;20028;-17
2022/07/12 08:58:30;;;;;;;3.20;1.98;;;31.00;42.70;;;;;;5053698;28;20051;-17
2022/07/12 09:00:56;;;;;;;2.83;2.08;;;31.20;42.80;;;;;;5053852;28;20037;-17
2022/07/12 09:03:22;;;;;;;3.95;2.33;;;31.40;41.40;;;;;;5053659;28;20029;-17
2022/07/12 09:05:54;;;;;;;3.65;2.33;;;31.60;40.70;;;;;;5053388;28;20025;-16
2022/07/12 09:08:29;;;;;;;2.85;2.35;;;31.90;40.50;;;;;;5053180;28;20037;-18
2022/07/12 09:11:03;;;;;;;3.00;2.28;;;32.30;39.60;;;;;;5053707;28;20025;-17
2022/07/12 09:13:51;;;;;;;4.00;2.00;;;32.50;38.70;;;;;;5053401;28;20107;-17
2022/07/12 09:16:19;;;;;;;4.35;2.20;;;32.80;38.60;;;;;;5051847;28;20420;-16
2022/07/12 09:18:46;;;;;;;3.67;2.20;;;32.80;38.20;;;;;;5053159;28;20036;-17
2022/07/12 09:21:30;;;;;;;3.25;2.20;;;32.90;38.30;;;;;;5053441;28;20052;-17
2022/07/12 09:23:58;;;;;;;4.97;2.40;;;33.30;37.10;;;;;;5053226;28;20040;-16
2022/07/12 09:26:35;;;;;;;2.55;2.08;;;33.50;37.40;;;;;;5052969;28;20057;-18
2022/07/12 09:29:11;;;;;;;5.55;2.13;;;33.60;37.20;;;;;;5052802;28;20040;-18
2022/07/12 09:37:15;;;;;;;5.57;2.42;;;33.80;35.20;;;;;;5053391;28;20036;-17
2022/07/12 09:39:42;;;;;;;4.07;2.10;;;33.90;35.40;;;;;;5051794;28;20021;-17
2022/07/12 09:42:10;;;;;;;4.85;2.13;;;34.20;34.00;;;;;;5053283;28;20029;-17
2022/07/12 09:44:37;;;;;;;3.50;2.08;;;34.40;34.20;;;;;;5052718;28;20036;-17
2022/07/12 09:47:03;;;;;;;3.30;2.28;;;34.50;33.50;;;;;;5053177;28;20039;-17
2022/07/12 09:49:29;;;;;;;4.55;1.92;;;34.70;33.40;;;;;;5055355;28;20049;-16
2022/07/12 09:51:57;;;;;;;2.20;1.98;;;34.90;32.20;;;;;;5057291;28;20056;-15
2022/07/12 09:54:27;;;;;;;2.13;2.03;;;35.10;31.20;;;;;;5055620;28;20032;-17
2022/07/12 09:56:56;;;;;;;4.78;2.08;;;35.20;31.60;;;;;;5057311;28;20038;-17
2022/07/12 09:59:24;;;;;;;3.58;2.00;;;35.30;31.80;;;;;;5057204;28;20033;-17
2022/07/12 10:01:55;;;;;;;2.78;2.10;;;35.40;31.60;;;;;;5057199;28;20066;-17
2022/07/12 10:04:23;;;;;;;3.63;2.13;;;35.60;31.80;;;;;;5056595;28;20392;-17
2022/07/12 10:06:50;;;;;;;3.20;2.10;;;35.50;31.60;;;;;;5056826;28;20362;-17
2022/07/12 10:09:17;;;;;;;2.83;2.00;;;35.40;31.60;;;;;;5057012;28;20407;-16
2022/07/12 10:11:44;;;;;;;3.15;1.95;;;35.30;31.30;;;;;;5057825;28;20033;-17
2022/07/12 10:14:12;;;;;;;3.72;1.98;;;35.00;31.80;;;;;;5056678;28;20032;-16
2022/07/12 10:16:42;;;;;;;3.28;2.10;;;34.80;32.10;;;;;;5056839;28;20083;-16
2022/07/12 10:19:24;;;;;;;3.08;1.90;;;34.50;32.40;;;;;;5056761;28;20393;-16
2022/07/12 10:21:55;;;;;;;2.70;2.20;;;34.20;32.90;;;;;;5056587;28;20116;-16
2022/07/12 10:24:33;;;;;;;2.33;1.90;;;34.00;33.60;;;;;;5056464;28;20456;-17
2022/07/12 10:27:00;;;;;;;3.30;2.22;;;34.20;32.90;;;;;;5057004;28;20558;-17
2022/07/12 10:29:26;;;;;;;2.30;2.10;;;34.70;32.50;;;;;;5056457;28;20053;-15
2022/07/12 10:31:52;;;;;;;3.28;2.30;;;35.20;31.90;;;;;;5057268;28;20040;-16
2022/07/12 10:34:27;;;;;;;3.17;1.90;;;35.50;31.70;;;;;;5054758;28;20110;-17
2022/07/12 10:36:56;;;;;;;4.38;2.35;;;35.70;32.10;;;;;;5056277;28;20037;-16
2022/07/12 10:39:27;;;;;;;4.95;2.40;;;36.00;31.50;;;;;;5056233;28;20115;-14
2022/07/12 10:42:19;;;;;;;4.10;2.30;;;36.40;30.80;;;;;;5056206;28;20083;-16
2022/07/12 10:44:47;;;;;;;4.67;2.10;;;36.80;29.60;;;;;;5054232;28;20091;-16
2022/07/12 10:47:15;;;;;;;3.97;2.15;;;37.10;30.80;;;;;;5054797;28;20037;-16
2022/07/12 10:49:54;;;;;;;3.00;2.33;;;37.50;30.60;;;;;;5056227;28;20033;-17
2022/07/12 10:52:25;;;;;;;2.65;1.90;;;37.80;29.20;;;;;;5056684;28;20036;-17
2022/07/12 10:54:57;;;;;;;6.07;2.50;;;38.00;29.00;;;;;;5055895;28;20021;-16
2022/07/12 10:57:43;;;;;;;2.88;1.95;;;37.90;28.40;;;;;;5055871;28;20022;-16
2022/07/12 11:00:11;;;;;;;2.72;2.00;;;37.60;28.60;;;;;;5055353;28;20515;-16
2022/07/12 11:02:37;;;;;;;2.25;2.05;;;37.40;30.10;;;;;;5055472;28;20055;-16
2022/07/12 11:05:04;;;;;;;2.25;2.05;;;37.50;29.90;;;;;;5056157;28;20388;-15
2022/07/12 11:07:31;;;;;;;2.63;2.30;;;37.70;29.60;;;;;;5055908;28;20090;-17
2022/07/12 11:09:57;;;;;;;2.25;2.05;;;37.60;29.50;;;;;;5055961;28;20060;-17
2022/07/12 11:12:32;;;;;;;5.40;2.40;;;37.60;30.00;;;;;;5055682;28;20519;-16
2022/07/12 11:15:00;;;;;;;3.00;2.00;;;37.80;28.50;;;;;;5055528;28;20558;-16
2022/07/12 11:17:33;;;;;;;3.05;2.03;;;38.00;29.30;;;;;;5055370;28;20028;-17
2022/07/12 11:20:13;;;;;;;3.42;2.20;;;38.40;28.90;;;;;;5055537;28;20033;-16
2022/07/12 11:22:41;;;;;;;4.35;2.40;;;38.70;27.40;;;;;;5055464;28;20024;-16
2022/07/12 11:25:12;;;;;;;2.30;2.10;;;38.80;27.80;;;;;;5055340;28;20037;-17
2022/07/12 11:27:39;;;;;;;4.63;2.03;;;38.50;27.70;;;;;;5055622;28;20094;-16
2022/07/12 11:30:06;;;;;;;4.53;2.42;;;38.50;28.20;;;;;;5054888;28;20287;-16
2022/07/12 11:32:39;;;;;;;2.28;2.08;;;38.80;27.30;;;;;;5053731;28;20370;-16
2022/07/12 11:35:20;;;;;;;2.72;1.80;;;39.30;25.80;;;;;;5055468;28;20024;-16
2022/07/12 11:37:51;;;;;;;3.10;1.90;;;39.50;26.10;;;;;;5055453;28;20029;-18
2022/07/12 11:40:30;;;;;;;5.60;2.20;;;39.90;26.30;;;;;;5054991;28;20028;-17
2022/07/12 11:42:59;;;;;;;3.60;2.15;;;40.20;25.10;;;;;;5055075;28;20498;-15
2022/07/12 11:45:30;;;;;;;2.92;1.92;;;40.50;24.90;;;;;;5054958;28;20086;-18
2022/07/12 11:48:01;;;;;;;2.13;1.90;;;40.50;25.10;;;;;;5055137;28;20041;-17
2022/07/12 11:50:31;;;;;;;2.63;2.25;;;40.50;25.40;;;;;;5054738;28;20029;-17
2022/07/12 11:52:57;;;;;;;3.75;2.10;;;40.70;24.80;;;;;;5054842;28;20043;-17
2022/07/12 11:55:23;;;;;;;2.20;2.00;;;40.80;24.80;;;;;;5055113;28;20021;-16
2022/07/12 11:57:49;;;;;;;2.72;2.13;;;40.90;24.80;;;;;;5054743;28;20017;-16
2022/07/12 12:00:18;;;;;;;3.22;1.90;;;40.90;24.60;;;;;;5054450;28;20036;-16
2022/07/12 12:02:44;;;;;;;4.60;2.20;;;41.00;25.00;;;;;;5054547;28;20032;-16
2022/07/12 12:05:11;;;;;;;2.75;2.08;;;41.20;25.00;;;;;;5054929;28;20175;-15
2022/07/12 12:07:38;;;;;;;2.38;2.00;;;41.20;25.00;;;;;;5055013;28;20040;-17
2022/07/12 12:10:17;;;;;;;2.35;2.10;;;41.30;24.80;;;;;;5054592;28;20086;-16
2022/07/12 12:12:44;;;;;;;5.97;2.15;;;41.00;24.50;;;;;;5053660;28;20021;-16
2022/07/12 12:15:21;;;;;;;3.10;2.03;;;40.40;25.20;;;;;;5054436;28;20036;-16
2022/07/12 12:18:04;;;;;;;2.88;2.20;;;39.90;25.90;;;;;;5054601;28;20032;-16
2022/07/12 12:20:32;;;;;;;4.70;2.05;;;39.70;25.80;;;;;;5054252;28;20018;-16
2022/07/12 12:23:00;;;;;;;2.45;2.00;;;39.70;26.10;;;;;;5054663;28;20017;-16
2022/07/12 12:25:29;;;;;;;4.55;2.20;;;39.70;26.20;;;;;;5054168;28;20033;-16
2022/07/12 12:28:03;;;;;;;2.75;2.10;;;39.70;26.10;;;;;;5054427;28;20029;-16
2022/07/12 12:30:32;;;;;;;2.03;1.80;;;39.40;26.40;;;;;;5053699;28;20084;-16
2022/07/12 12:33:08;;;;;;;2.63;2.08;;;39.40;27.10;;;;;;5054269;28;20107;-16
2022/07/12 12:35:36;;;;;;;2.60;1.90;;;39.60;27.00;;;;;;5054034;28;20029;-16
2022/07/12 12:38:13;;;;;;;2.53;2.10;;;39.60;26.70;;;;;;5053951;28;20503;-17
2022/07/12 12:40:40;;;;;;;2.35;1.98;;;39.70;26.30;;;;;;5054265;28;20024;-16
2022/07/12 12:43:11;;;;;;;5.82;2.15;;;39.90;26.20;;;;;;5054080;28;20029;-18
2022/07/12 12:45:50;;;;;;;2.85;1.83;;;40.20;26.30;;;;;;5054212;28;20024;-17
2022/07/12 12:48:24;;;;;;;6.90;2.40;;;40.50;26.30;;;;;;5053544;28;20072;-16
2022/07/12 12:50:52;;;;;;;5.35;2.20;;;40.80;25.90;;;;;;5053643;28;20120;-16
2022/07/12 12:53:21;;;;;;;4.65;2.20;;;40.80;26.10;;;;;;5053678;28;20453;-16
2022/07/12 12:55:49;;;;;;;2.45;2.25;;;40.70;26.20;;;;;;5053977;28;20025;-16
2022/07/12 12:58:17;;;;;;;3.60;2.10;;;40.50;26.50;;;;;;5053736;28;20033;-16
2022/07/12 13:00:47;;;;;;;3.28;2.20;;;40.50;26.80;;;;;;5053557;28;20170;-16